createdAt,value
2022-12-24T00:02:52.968Z,22.7
2022-12-24T00:08:35.629Z,23
2022-12-24T00:14:14.000Z,23
2022-12-24T00:19:37.866Z,23.6
2022-12-24T00:25:16.834Z,23.6
2022-12-24T00:30:24.438Z,23.2
2022-12-24T00:36:10.232Z,23.4
2022-12-24T00:41:47.623Z,23.9
2022-12-24T00:47:29.817Z,23.4
2022-12-24T00:53:07.672Z,23.2
2022-12-24T00:58:45.158Z,23.8
2022-12-24T01:04:09.955Z,22.3
2022-12-24T01:09:48.384Z,23.2
2022-12-24T01:15:25.918Z,24
2022-12-24T01:21:04.253Z,23.3
2022-12-24T01:26:42.349Z,23.3
2022-12-24T01:32:20.675Z,23.9
2022-12-24T01:37:12.650Z,23.5
2022-12-24T01:42:35.031Z,23
2022-12-24T01:48:03.459Z,23.6
2022-12-24T01:53:25.495Z,23.9
2022-12-24T01:59:04.172Z,23.3
2022-12-24T02:04:43.171Z,23.4
2022-12-24T02:10:20.955Z,23.9
2022-12-24T02:15:28.531Z,23.4
2022-12-24T02:20:51.415Z,23.1
2022-12-24T02:26:29.794Z,23.7
2022-12-24T02:32:07.822Z,23.8
2022-12-24T02:37:14.173Z,23.1
2022-12-24T02:48:59.363Z,22.2
2022-12-24T02:54:36.774Z,22.9
2022-12-24T02:59:59.558Z,24
2022-12-24T03:05:23.478Z,23.4
2022-12-24T03:10:45.375Z,22.9
2022-12-24T03:16:08.374Z,23.4
2022-12-24T03:21:47.533Z,23.5
2022-12-24T03:27:25.016Z,21.8
2022-12-24T03:32:47.717Z,23.1
2022-12-24T03:38:25.784Z,23.8
2022-12-24T03:44:03.454Z,23.1
2022-12-24T03:49:41.494Z,23
2022-12-24T03:55:19.022Z,23.8
2022-12-24T04:00:56.260Z,23.4
2022-12-24T04:06:04.600Z,22.8
2022-12-24T04:11:44.250Z,23.5
2022-12-24T04:17:22.810Z,23.7
2022-12-24T04:23:00.752Z,23.1
2022-12-24T04:28:38.701Z,23.2
2022-12-24T04:34:01.602Z,23.9
2022-12-24T04:39:23.916Z,23.2
2022-12-24T04:44:34.832Z,22.9
2022-12-24T04:50:13.610Z,23.6
2022-12-24T04:55:21.095Z,23.5
2022-12-24T05:00:58.609Z,22.9
2022-12-24T05:07:08.400Z,23.4
2022-12-24T05:12:45.762Z,24.4
2022-12-24T05:18:32.148Z,23.1
2022-12-24T05:24:09.614Z,22.2
2022-12-24T05:29:48.341Z,21.9
2022-12-24T05:34:56.175Z,22
2022-12-24T05:40:39.288Z,21.9
2022-12-24T05:46:17.268Z,22.4
2022-12-24T05:51:41.303Z,23.6
2022-12-24T05:57:05.460Z,22.3
2022-12-24T06:02:43.910Z,22.1
2022-12-24T06:08:11.888Z,23.3
2022-12-24T06:13:50.399Z,23.4
2022-12-24T06:19:34.182Z,22.6
2022-12-24T06:24:56.984Z,22.4
2022-12-24T06:30:36.446Z,22.4
2022-12-24T06:36:21.909Z,22.2
2022-12-24T06:42:00.138Z,22
2022-12-24T06:47:38.994Z,22.4
2022-12-24T06:53:17.171Z,23.4
2022-12-24T06:58:38.919Z,23.3
2022-12-24T07:04:24.352Z,22
2022-12-24T07:10:03.397Z,21.1
2022-12-24T07:15:42.067Z,21.4
2022-12-24T07:21:28.648Z,21.1
2022-12-24T07:27:07.525Z,21.2
2022-12-24T07:33:00.596Z,21.9
2022-12-24T07:38:41.708Z,23.1
2022-12-24T07:44:27.515Z,23.1
2022-12-24T07:50:06.244Z,22.1
2022-12-24T07:55:44.685Z,21.6
2022-12-24T08:01:23.631Z,21.2
2022-12-24T08:07:07.397Z,20.9
2022-12-24T08:12:46.339Z,20.8
2022-12-24T08:18:24.217Z,21.9
2022-12-24T08:24:02.741Z,22.7
2022-12-24T08:29:40.533Z,22.7
2022-12-24T08:35:26.101Z,21.9
2022-12-24T08:41:04.238Z,21.4
2022-12-24T08:46:47.789Z,21.1
2022-12-24T08:52:25.988Z,20.9
2022-12-24T08:58:09.461Z,20.8
2022-12-24T09:03:54.818Z,21.9
2022-12-24T09:09:37.801Z,21.2
2022-12-24T09:15:21.221Z,20.9
2022-12-24T09:21:04.395Z,22.3
2022-12-24T09:26:27.546Z,22.9
2022-12-24T09:31:50.504Z,22
2022-12-24T09:37:33.874Z,21.5
2022-12-24T09:48:43.074Z,20.9
2022-12-24T09:54:21.996Z,20.8
2022-12-24T09:59:29.340Z,21.6
2022-12-24T10:05:09.272Z,22.6
2022-12-24T10:10:47.875Z,22.6
2022-12-24T10:16:15.787Z,21.8
2022-12-24T10:21:53.941Z,21.3
2022-12-24T10:27:36.222Z,21.1
2022-12-24T10:33:20.266Z,20.9
2022-12-24T10:38:58.656Z,20.8
2022-12-24T10:44:30.171Z,22
2022-12-24T10:50:13.920Z,22.9
2022-12-24T10:55:52.274Z,22.1
2022-12-24T11:01:32.524Z,21.6
2022-12-24T11:06:59.971Z,21.2
2022-12-24T11:12:42.977Z,20.9
2022-12-24T11:19:04.244Z,20.6
2022-12-24T11:24:48.268Z,21.5
2022-12-24T11:30:33.577Z,22.8
2022-12-24T11:36:12.252Z,22.6
2022-12-24T11:41:49.854Z,21.9
2022-12-24T11:47:30.486Z,21.7
2022-12-24T11:53:25.032Z,22
2022-12-24T11:59:10.317Z,23.1
2022-12-24T12:04:41.974Z,20.9
2022-12-24T12:10:04.332Z,20.1
2022-12-24T12:16:01.828Z,20
2022-12-24T12:21:44.998Z,22.2
2022-12-24T12:27:23.440Z,22.8
2022-12-24T12:33:09.079Z,21.6
2022-12-24T12:38:54.302Z,22.2
2022-12-24T12:44:38.090Z,22.4
2022-12-24T12:50:09.099Z,23.2
2022-12-24T12:55:51.764Z,23.5
2022-12-24T13:01:32.700Z,22.9
2022-12-24T13:06:56.522Z,22.6
2022-12-24T13:12:42.712Z,22.6
2022-12-24T13:18:26.077Z,23.3
2022-12-24T13:24:09.773Z,23.2
2022-12-24T13:29:55.364Z,22.6
2022-12-24T13:35:37.779Z,22.2
2022-12-24T13:41:36.373Z,23.1
2022-12-24T13:47:01.454Z,23.7
2022-12-24T13:52:42.399Z,22.9
2022-12-24T13:58:21.071Z,22.5
2022-12-24T14:04:08.075Z,22.3
2022-12-24T14:09:36.950Z,23.2
2022-12-24T14:15:20.681Z,23.5
2022-12-24T14:21:01.083Z,23.4
2022-12-24T14:26:39.335Z,23.1
2022-12-24T14:32:17.981Z,22.7
2022-12-24T14:37:40.896Z,21.5
2022-12-24T14:43:19.483Z,21.8
2022-12-24T14:49:01.907Z,21.7
2022-12-24T14:55:18.495Z,22.1
2022-12-24T15:01:30.782Z,23.4
2022-12-24T15:07:10.753Z,23.4
2022-12-24T15:12:53.269Z,22.9
2022-12-24T15:18:22.232Z,22.6
2022-12-24T15:23:34.954Z,22.4
2022-12-24T15:29:20.258Z,22.4
2022-12-24T15:34:59.265Z,21.9
2022-12-24T15:40:21.426Z,22.2
2022-12-24T15:45:46.267Z,23.1
2022-12-24T15:50:53.130Z,23.4
2022-12-24T15:56:15.706Z,23.1
2022-12-24T16:01:23.699Z,22.4
2022-12-24T16:06:48.413Z,22.4
2022-12-24T16:12:01.162Z,22.2
2022-12-24T16:17:40.869Z,21.5
2022-12-24T16:23:22.292Z,21.6
2022-12-24T16:29:04.592Z,22.5
2022-12-24T16:34:43.158Z,23.6
2022-12-24T16:40:26.763Z,23.1
2022-12-24T16:45:50.532Z,21.6
2022-12-24T16:51:32.937Z,22.1
2022-12-24T16:56:45.238Z,21
2022-12-24T17:02:14.178Z,20.8
